sensor_id;sensor_type;location;lat;lon;timestamp;P1;durP1;ratioP1;P2;durP2;ratioP2
8540;SDS011;4308;51.294;6.590;2022-09-30T00:00:24;9.90;;;6.83;;
8540;SDS011;4308;51.294;6.590;2022-09-30T00:02:52;8.60;;;6.20;;
8540;SDS011;4308;51.294;6.590;2022-09-30T00:05:22;10.70;;;7.23;;
8540;SDS011;4308;51.294;6.590;2022-09-30T00:07:49;8.13;;;6.50;;
8540;SDS011;4308;51.294;6.590;2022-09-30T00:10:17;11.83;;;7.57;;
8540;SDS011;4308;51.294;6.590;2022-09-30T00:12:44;10.20;;;7.50;;
8540;SDS011;4308;51.294;6.590;2022-09-30T00:15:12;8.37;;;7.27;;
8540;SDS011;4308;51.294;6.590;2022-09-30T00:17:39;10.93;;;7.40;;
8540;SDS011;4308;51.294;6.590;2022-09-30T00:20:07;13.70;;;8.07;;
8540;SDS011;4308;51.294;6.590;2022-09-30T00:22:35;8.00;;;6.80;;
8540;SDS011;4308;51.294;6.590;2022-09-30T00:25:03;10.40;;;6.97;;
8540;SDS011;4308;51.294;6.590;2022-09-30T00:27:30;10.77;;;7.00;;
8540;SDS011;4308;51.294;6.590;2022-09-30T00:29:58;12.77;;;8.17;;
8540;SDS011;4308;51.294;6.590;2022-09-30T00:32:25;9.77;;;7.93;;
8540;SDS011;4308;51.294;6.590;2022-09-30T00:34:53;11.30;;;7.83;;
8540;SDS011;4308;51.294;6.590;2022-09-30T00:37:20;12.70;;;10.00;;
8540;SDS011;4308;51.294;6.590;2022-09-30T00:39:47;16.47;;;9.27;;
8540;SDS011;4308;51.294;6.590;2022-09-30T00:42:15;14.10;;;9.03;;
8540;SDS011;4308;51.294;6.590;2022-09-30T00:52:47;12.23;;;9.47;;
8540;SDS011;4308;51.294;6.590;2022-09-30T00:58:06;12.00;;;9.50;;
8540;SDS011;4308;51.294;6.590;2022-09-30T01:00:35;12.30;;;9.60;;
8540;SDS011;4308;51.294;6.590;2022-09-30T01:03:03;13.47;;;9.27;;
8540;SDS011;4308;51.294;6.590;2022-09-30T01:05:31;14.13;;;9.83;;
8540;SDS011;4308;51.294;6.590;2022-09-30T01:07:59;13.17;;;9.07;;
8540;SDS011;4308;51.294;6.590;2022-09-30T01:10:28;13.30;;;9.30;;
8540;SDS011;4308;51.294;6.590;2022-09-30T01:12:55;12.47;;;8.70;;
8540;SDS011;4308;51.294;6.590;2022-09-30T01:15:26;11.33;;;8.67;;
8540;SDS011;4308;51.294;6.590;2022-09-30T01:18:03;11.00;;;8.57;;
8540;SDS011;4308;51.294;6.590;2022-09-30T01:21:07;14.73;;;8.73;;
8540;SDS011;4308;51.294;6.590;2022-09-30T01:26:23;11.17;;;8.23;;
8540;SDS011;4308;51.294;6.590;2022-09-30T01:34:05;16.50;;;10.00;;
8540;SDS011;4308;51.294;6.590;2022-09-30T01:39:18;14.63;;;10.93;;
8540;SDS011;4308;51.294;6.590;2022-09-30T01:44:21;17.33;;;11.00;;
8540;SDS011;4308;51.294;6.590;2022-09-30T01:47:16;13.93;;;10.13;;
8540;SDS011;4308;51.294;6.590;2022-09-30T01:49:50;15.73;;;9.93;;
8540;SDS011;4308;51.294;6.590;2022-09-30T01:52:21;12.23;;;9.03;;
8540;SDS011;4308;51.294;6.590;2022-09-30T01:55:05;13.53;;;10.17;;
8540;SDS011;4308;51.294;6.590;2022-09-30T01:57:49;14.30;;;10.67;;
8540;SDS011;4308;51.294;6.590;2022-09-30T02:00:19;16.50;;;9.70;;
8540;SDS011;4308;51.294;6.590;2022-09-30T02:02:51;14.00;;;9.80;;
8540;SDS011;4308;51.294;6.590;2022-09-30T02:06:04;16.47;;;9.87;;
8540;SDS011;4308;51.294;6.590;2022-09-30T02:08:15;13.00;;;10.07;;
8540;SDS011;4308;51.294;6.590;2022-09-30T02:11:27;16.93;;;10.90;;
8540;SDS011;4308;51.294;6.590;2022-09-30T02:13:37;13.30;;;10.40;;
8540;SDS011;4308;51.294;6.590;2022-09-30T02:16:06;14.73;;;10.60;;
8540;SDS011;4308;51.294;6.590;2022-09-30T02:18:39;13.23;;;9.57;;
8540;SDS011;4308;51.294;6.590;2022-09-30T02:21:07;14.23;;;10.17;;
8540;SDS011;4308;51.294;6.590;2022-09-30T02:23:37;13.70;;;9.07;;
8540;SDS011;4308;51.294;6.590;2022-09-30T02:26:08;16.10;;;10.67;;
8540;SDS011;4308;51.294;6.590;2022-09-30T02:28:39;14.23;;;10.03;;
8540;SDS011;4308;51.294;6.590;2022-09-30T02:31:08;14.77;;;9.77;;
8540;SDS011;4308;51.294;6.590;2022-09-30T02:33:38;18.90;;;10.37;;
8540;SDS011;4308;51.294;6.590;2022-09-30T02:36:09;14.37;;;9.73;;
8540;SDS011;4308;51.294;6.590;2022-09-30T02:38:43;13.23;;;9.67;;
8540;SDS011;4308;51.294;6.590;2022-09-30T02:41:12;14.00;;;9.53;;
8540;SDS011;4308;51.294;6.590;2022-09-30T02:43:41;19.20;;;9.37;;
8540;SDS011;4308;51.294;6.590;2022-09-30T02:46:12;17.80;;;10.70;;
8540;SDS011;4308;51.294;6.590;2022-09-30T02:48:48;15.90;;;9.83;;
8540;SDS011;4308;51.294;6.590;2022-09-30T02:53:53;16.70;;;10.80;;
8540;SDS011;4308;51.294;6.590;2022-09-30T02:59:07;15.13;;;9.20;;
8540;SDS011;4308;51.294;6.590;2022-09-30T03:01:34;19.97;;;10.17;;
8540;SDS011;4308;51.294;6.590;2022-09-30T03:04:03;17.27;;;10.47;;
8540;SDS011;4308;51.294;6.590;2022-09-30T03:06:33;14.47;;;9.77;;
8540;SDS011;4308;51.294;6.590;2022-09-30T03:09:01;17.73;;;10.80;;
8540;SDS011;4308;51.294;6.590;2022-09-30T03:11:28;14.03;;;10.13;;
8540;SDS011;4308;51.294;6.590;2022-09-30T03:19:05;15.77;;;10.30;;
8540;SDS011;4308;51.294;6.590;2022-09-30T03:24:14;15.20;;;10.80;;
8540;SDS011;4308;51.294;6.590;2022-09-30T03:34:29;19.20;;;11.43;;
8540;SDS011;4308;51.294;6.590;2022-09-30T03:42:12;17.33;;;11.40;;
8540;SDS011;4308;51.294;6.590;2022-09-30T03:45:08;15.97;;;11.27;;
8540;SDS011;4308;51.294;6.590;2022-09-30T03:47:43;20.30;;;12.03;;
8540;SDS011;4308;51.294;6.590;2022-09-30T03:50:13;17.60;;;11.37;;
8540;SDS011;4308;51.294;6.590;2022-09-30T03:52:41;17.80;;;11.53;;
8540;SDS011;4308;51.294;6.590;2022-09-30T03:55:09;21.40;;;12.10;;
8540;SDS011;4308;51.294;6.590;2022-09-30T03:57:36;18.27;;;12.57;;
8540;SDS011;4308;51.294;6.590;2022-09-30T04:00:05;18.03;;;12.97;;
8540;SDS011;4308;51.294;6.590;2022-09-30T04:02:32;20.20;;;13.07;;
8540;SDS011;4308;51.294;6.590;2022-09-30T04:05:00;20.93;;;13.17;;
8540;SDS011;4308;51.294;6.590;2022-09-30T04:07:27;18.37;;;12.20;;
8540;SDS011;4308;51.294;6.590;2022-09-30T04:09:55;18.90;;;12.33;;
8540;SDS011;4308;51.294;6.590;2022-09-30T04:12:22;18.30;;;12.90;;
8540;SDS011;4308;51.294;6.590;2022-09-30T04:14:50;17.57;;;11.97;;
8540;SDS011;4308;51.294;6.590;2022-09-30T04:17:17;21.60;;;12.90;;
8540;SDS011;4308;51.294;6.590;2022-09-30T04:19:45;18.33;;;11.70;;
8540;SDS011;4308;51.294;6.590;2022-09-30T04:22:12;18.87;;;11.53;;
8540;SDS011;4308;51.294;6.590;2022-09-30T04:24:40;19.83;;;12.13;;
8540;SDS011;4308;51.294;6.590;2022-09-30T04:27:07;15.03;;;11.70;;
8540;SDS011;4308;51.294;6.590;2022-09-30T04:29:34;19.07;;;11.73;;
8540;SDS011;4308;51.294;6.590;2022-09-30T04:32:02;20.80;;;11.73;;
8540;SDS011;4308;51.294;6.590;2022-09-30T04:34:29;23.53;;;12.93;;
8540;SDS011;4308;51.294;6.590;2022-09-30T04:36:57;18.67;;;12.57;;
8540;SDS011;4308;51.294;6.590;2022-09-30T04:39:24;20.17;;;11.93;;
8540;SDS011;4308;51.294;6.590;2022-09-30T04:41:52;21.37;;;12.67;;
8540;SDS011;4308;51.294;6.590;2022-09-30T04:44:20;20.40;;;12.63;;
8540;SDS011;4308;51.294;6.590;2022-09-30T04:46:47;23.27;;;12.90;;
8540;SDS011;4308;51.294;6.590;2022-09-30T04:49:19;22.00;;;12.60;;
8540;SDS011;4308;51.294;6.590;2022-09-30T04:51:46;20.70;;;12.57;;
8540;SDS011;4308;51.294;6.590;2022-09-30T04:54:13;24.50;;;13.20;;
8540;SDS011;4308;51.294;6.590;2022-09-30T04:56:41;23.70;;;12.37;;
8540;SDS011;4308;51.294;6.590;2022-09-30T04:59:08;17.50;;;12.03;;
8540;SDS011;4308;51.294;6.590;2022-09-30T05:01:36;21.57;;;12.23;;
8540;SDS011;4308;51.294;6.590;2022-09-30T05:04:04;22.50;;;13.33;;
8540;SDS011;4308;51.294;6.590;2022-09-30T05:06:31;24.73;;;13.77;;
8540;SDS011;4308;51.294;6.590;2022-09-30T05:08:58;22.60;;;13.90;;
8540;SDS011;4308;51.294;6.590;2022-09-30T05:11:26;24.03;;;14.13;;
8540;SDS011;4308;51.294;6.590;2022-09-30T05:13:53;21.50;;;12.87;;
8540;SDS011;4308;51.294;6.590;2022-09-30T05:16:21;21.80;;;12.60;;
8540;SDS011;4308;51.294;6.590;2022-09-30T05:18:49;21.43;;;13.13;;
8540;SDS011;4308;51.294;6.590;2022-09-30T05:21:17;18.00;;;12.63;;
8540;SDS011;4308;51.294;6.590;2022-09-30T05:23:45;22.43;;;14.30;;
8540;SDS011;4308;51.294;6.590;2022-09-30T05:26:13;25.43;;;15.80;;
8540;SDS011;4308;51.294;6.590;2022-09-30T05:28:41;23.67;;;15.93;;
8540;SDS011;4308;51.294;6.590;2022-09-30T05:31:09;19.70;;;14.17;;
8540;SDS011;4308;51.294;6.590;2022-09-30T05:33:36;17.47;;;11.70;;
8540;SDS011;4308;51.294;6.590;2022-09-30T05:36:05;18.37;;;11.70;;
8540;SDS011;4308;51.294;6.590;2022-09-30T05:38:33;25.03;;;13.40;;
8540;SDS011;4308;51.294;6.590;2022-09-30T05:41:07;17.90;;;11.50;;
8540;SDS011;4308;51.294;6.590;2022-09-30T05:43:35;21.93;;;11.47;;
8540;SDS011;4308;51.294;6.590;2022-09-30T05:46:03;18.43;;;11.30;;
8540;SDS011;4308;51.294;6.590;2022-09-30T05:48:31;54.90;;;27.90;;
8540;SDS011;4308;51.294;6.590;2022-09-30T05:50:58;25.73;;;16.37;;
8540;SDS011;4308;51.294;6.590;2022-09-30T05:53:26;20.30;;;12.73;;
8540;SDS011;4308;51.294;6.590;2022-09-30T05:55:54;29.23;;;18.23;;
8540;SDS011;4308;51.294;6.590;2022-09-30T05:58:21;27.37;;;18.23;;
8540;SDS011;4308;51.294;6.590;2022-09-30T06:00:49;20.43;;;11.43;;
8540;SDS011;4308;51.294;6.590;2022-09-30T06:03:17;22.07;;;11.07;;
8540;SDS011;4308;51.294;6.590;2022-09-30T06:05:44;15.80;;;10.20;;
8540;SDS011;4308;51.294;6.590;2022-09-30T06:08:12;14.90;;;9.20;;
8540;SDS011;4308;51.294;6.590;2022-09-30T06:10:41;15.73;;;9.20;;
8540;SDS011;4308;51.294;6.590;2022-09-30T06:13:09;15.67;;;9.60;;
8540;SDS011;4308;51.294;6.590;2022-09-30T06:15:36;13.27;;;8.93;;
8540;SDS011;4308;51.294;6.590;2022-09-30T06:18:04;15.37;;;9.93;;
8540;SDS011;4308;51.294;6.590;2022-09-30T06:20:31;15.03;;;10.03;;
8540;SDS011;4308;51.294;6.590;2022-09-30T06:22:59;13.23;;;10.43;;
8540;SDS011;4308;51.294;6.590;2022-09-30T06:25:27;14.03;;;10.77;;
8540;SDS011;4308;51.294;6.590;2022-09-30T06:27:55;17.17;;;11.90;;
8540;SDS011;4308;51.294;6.590;2022-09-30T06:30:23;23.13;;;15.10;;
8540;SDS011;4308;51.294;6.590;2022-09-30T06:32:51;24.03;;;14.83;;
8540;SDS011;4308;51.294;6.590;2022-09-30T06:35:18;21.43;;;12.73;;
8540;SDS011;4308;51.294;6.590;2022-09-30T06:37:48;16.00;;;11.77;;
8540;SDS011;4308;51.294;6.590;2022-09-30T06:40:16;21.70;;;14.77;;
8540;SDS011;4308;51.294;6.590;2022-09-30T06:42:44;21.00;;;12.63;;
8540;SDS011;4308;51.294;6.590;2022-09-30T06:45:11;14.57;;;10.53;;
8540;SDS011;4308;51.294;6.590;2022-09-30T06:47:57;13.23;;;8.83;;
8540;SDS011;4308;51.294;6.590;2022-09-30T06:50:27;20.07;;;7.73;;
8540;SDS011;4308;51.294;6.590;2022-09-30T06:53:01;12.63;;;9.53;;
8540;SDS011;4308;51.294;6.590;2022-09-30T06:55:29;12.33;;;8.73;;
8540;SDS011;4308;51.294;6.590;2022-09-30T06:57:56;14.97;;;10.20;;
8540;SDS011;4308;51.294;6.590;2022-09-30T07:00:24;17.53;;;10.97;;
8540;SDS011;4308;51.294;6.590;2022-09-30T07:02:55;13.33;;;8.53;;
8540;SDS011;4308;51.294;6.590;2022-09-30T07:05:23;13.50;;;9.17;;
8540;SDS011;4308;51.294;6.590;2022-09-30T07:07:52;14.37;;;9.03;;
8540;SDS011;4308;51.294;6.590;2022-09-30T07:10:19;12.53;;;8.67;;
8540;SDS011;4308;51.294;6.590;2022-09-30T07:12:50;13.40;;;8.70;;
8540;SDS011;4308;51.294;6.590;2022-09-30T07:15:18;12.00;;;8.90;;
8540;SDS011;4308;51.294;6.590;2022-09-30T07:17:50;13.67;;;9.07;;
8540;SDS011;4308;51.294;6.590;2022-09-30T07:20:17;13.87;;;9.30;;
8540;SDS011;4308;51.294;6.590;2022-09-30T07:22:45;12.47;;;8.57;;
8540;SDS011;4308;51.294;6.590;2022-09-30T07:25:13;13.83;;;10.13;;
8540;SDS011;4308;51.294;6.590;2022-09-30T07:27:40;12.63;;;8.03;;
8540;SDS011;4308;51.294;6.590;2022-09-30T07:30:08;14.00;;;8.57;;
8540;SDS011;4308;51.294;6.590;2022-09-30T07:32:46;15.60;;;10.43;;
8540;SDS011;4308;51.294;6.590;2022-09-30T07:35:14;13.97;;;9.30;;
8540;SDS011;4308;51.294;6.590;2022-09-30T07:37:41;16.07;;;9.67;;
8540;SDS011;4308;51.294;6.590;2022-09-30T07:40:09;14.73;;;9.43;;
8540;SDS011;4308;51.294;6.590;2022-09-30T07:42:37;12.97;;;9.60;;
8540;SDS011;4308;51.294;6.590;2022-09-30T07:45:05;11.33;;;9.40;;
8540;SDS011;4308;51.294;6.590;2022-09-30T07:47:33;12.17;;;9.63;;
8540;SDS011;4308;51.294;6.590;2022-09-30T07:50:00;12.30;;;9.90;;
8540;SDS011;4308;51.294;6.590;2022-09-30T07:52:28;17.07;;;11.20;;
8540;SDS011;4308;51.294;6.590;2022-09-30T07:54:55;16.73;;;10.67;;
8540;SDS011;4308;51.294;6.590;2022-09-30T07:57:22;15.43;;;9.87;;
8540;SDS011;4308;51.294;6.590;2022-09-30T07:59:50;14.33;;;10.60;;
8540;SDS011;4308;51.294;6.590;2022-09-30T08:02:18;13.10;;;10.17;;
8540;SDS011;4308;51.294;6.590;2022-09-30T08:04:45;13.40;;;9.90;;
8540;SDS011;4308;51.294;6.590;2022-09-30T08:07:14;16.93;;;10.10;;
8540;SDS011;4308;51.294;6.590;2022-09-30T08:09:42;15.83;;;11.67;;
8540;SDS011;4308;51.294;6.590;2022-09-30T08:12:09;17.50;;;11.40;;
8540;SDS011;4308;51.294;6.590;2022-09-30T08:14:37;18.50;;;11.97;;
8540;SDS011;4308;51.294;6.590;2022-09-30T08:17:05;22.17;;;12.63;;
8540;SDS011;4308;51.294;6.590;2022-09-30T08:19:32;18.67;;;12.67;;
8540;SDS011;4308;51.294;6.590;2022-09-30T08:22:00;18.73;;;12.87;;
8540;SDS011;4308;51.294;6.590;2022-09-30T08:24:28;18.73;;;13.13;;
8540;SDS011;4308;51.294;6.590;2022-09-30T08:26:57;17.83;;;12.20;;
8540;SDS011;4308;51.294;6.590;2022-09-30T08:29:25;18.47;;;12.47;;
8540;SDS011;4308;51.294;6.590;2022-09-30T08:32:12;14.33;;;11.30;;
8540;SDS011;4308;51.294;6.590;2022-09-30T08:34:40;16.03;;;11.57;;
8540;SDS011;4308;51.294;6.590;2022-09-30T08:37:07;16.50;;;11.87;;
8540;SDS011;4308;51.294;6.590;2022-09-30T08:39:38;17.83;;;12.87;;
8540;SDS011;4308;51.294;6.590;2022-09-30T08:44:53;16.07;;;12.77;;
8540;SDS011;4308;51.294;6.590;2022-09-30T08:52:34;18.37;;;12.07;;
8540;SDS011;4308;51.294;6.590;2022-09-30T08:55:23;19.73;;;13.17;;
8540;SDS011;4308;51.294;6.590;2022-09-30T08:57:52;20.30;;;13.20;;
8540;SDS011;4308;51.294;6.590;2022-09-30T09:00:21;16.40;;;12.53;;
8540;SDS011;4308;51.294;6.590;2022-09-30T09:02:55;23.47;;;13.10;;
8540;SDS011;4308;51.294;6.590;2022-09-30T09:05:27;19.63;;;13.07;;
8540;SDS011;4308;51.294;6.590;2022-09-30T09:08:02;21.37;;;13.27;;
8540;SDS011;4308;51.294;6.590;2022-09-30T09:10:39;24.27;;;13.53;;
8540;SDS011;4308;51.294;6.590;2022-09-30T09:13:11;17.53;;;14.20;;
8540;SDS011;4308;51.294;6.590;2022-09-30T09:20:54;20.97;;;13.77;;
8540;SDS011;4308;51.294;6.590;2022-09-30T09:23:22;19.83;;;13.40;;
8540;SDS011;4308;51.294;6.590;2022-09-30T09:25:50;19.10;;;13.37;;
8540;SDS011;4308;51.294;6.590;2022-09-30T09:30:50;17.10;;;12.83;;
8540;SDS011;4308;51.294;6.590;2022-09-30T09:33:19;18.53;;;12.87;;
8540;SDS011;4308;51.294;6.590;2022-09-30T09:35:52;16.73;;;13.23;;
8540;SDS011;4308;51.294;6.590;2022-09-30T09:46:36;19.77;;;12.93;;
8540;SDS011;4308;51.294;6.590;2022-09-30T09:51:40;18.33;;;13.60;;
8540;SDS011;4308;51.294;6.590;2022-09-30T09:54:10;17.33;;;14.07;;
8540;SDS011;4308;51.294;6.590;2022-09-30T09:56:38;18.73;;;14.10;;
8540;SDS011;4308;51.294;6.590;2022-09-30T09:59:06;20.33;;;13.30;;
8540;SDS011;4308;51.294;6.590;2022-09-30T10:01:35;16.97;;;12.67;;
8540;SDS011;4308;51.294;6.590;2022-09-30T10:04:07;19.73;;;13.83;;
8540;SDS011;4308;51.294;6.590;2022-09-30T10:06:45;21.40;;;14.33;;
8540;SDS011;4308;51.294;6.590;2022-09-30T10:11:50;23.97;;;13.47;;
8540;SDS011;4308;51.294;6.590;2022-09-30T10:14:19;17.77;;;14.53;;
8540;SDS011;4308;51.294;6.590;2022-09-30T10:16:47;19.63;;;13.87;;
8540;SDS011;4308;51.294;6.590;2022-09-30T10:19:17;22.10;;;15.10;;
8540;SDS011;4308;51.294;6.590;2022-09-30T10:21:45;19.80;;;14.93;;
8540;SDS011;4308;51.294;6.590;2022-09-30T10:24:28;19.67;;;14.07;;
8540;SDS011;4308;51.294;6.590;2022-09-30T10:26:56;20.30;;;13.47;;
8540;SDS011;4308;51.294;6.590;2022-09-30T10:29:28;18.03;;;13.43;;
8540;SDS011;4308;51.294;6.590;2022-09-30T10:31:57;18.03;;;13.30;;
8540;SDS011;4308;51.294;6.590;2022-09-30T10:34:27;21.50;;;13.73;;
8540;SDS011;4308;51.294;6.590;2022-09-30T10:36:56;17.47;;;13.37;;
8540;SDS011;4308;51.294;6.590;2022-09-30T10:39:28;19.07;;;14.23;;
8540;SDS011;4308;51.294;6.590;2022-09-30T10:44:46;20.70;;;13.73;;
8540;SDS011;4308;51.294;6.590;2022-09-30T10:47:16;15.43;;;12.53;;
8540;SDS011;4308;51.294;6.590;2022-09-30T10:49:47;15.87;;;12.80;;
8540;SDS011;4308;51.294;6.590;2022-09-30T10:52:17;15.13;;;13.10;;
8540;SDS011;4308;51.294;6.590;2022-09-30T10:54:49;14.67;;;13.07;;
8540;SDS011;4308;51.294;6.590;2022-09-30T10:57:22;15.57;;;13.20;;
8540;SDS011;4308;51.294;6.590;2022-09-30T11:05:11;17.20;;;11.50;;
8540;SDS011;4308;51.294;6.590;2022-09-30T11:07:43;12.13;;;9.60;;
8540;SDS011;4308;51.294;6.590;2022-09-30T11:10:24;12.00;;;9.17;;
8540;SDS011;4308;51.294;6.590;2022-09-30T11:18:21;12.93;;;9.70;;
8540;SDS011;4308;51.294;6.590;2022-09-30T11:20:53;13.00;;;8.93;;
8540;SDS011;4308;51.294;6.590;2022-09-30T11:23:26;10.73;;;9.27;;
8540;SDS011;4308;51.294;6.590;2022-09-30T11:28:51;8.90;;;8.00;;
8540;SDS011;4308;51.294;6.590;2022-09-30T11:42:11;10.10;;;8.43;;
8540;SDS011;4308;51.294;6.590;2022-09-30T11:44:40;7.23;;;6.27;;
8540;SDS011;4308;51.294;6.590;2022-09-30T11:58:05;8.50;;;6.60;;
8540;SDS011;4308;51.294;6.590;2022-09-30T12:00:55;8.47;;;5.93;;
8540;SDS011;4308;51.294;6.590;2022-09-30T12:03:26;8.87;;;7.10;;
8540;SDS011;4308;51.294;6.590;2022-09-30T12:05:57;8.10;;;6.13;;
8540;SDS011;4308;51.294;6.590;2022-09-30T12:08:32;6.83;;;5.80;;
8540;SDS011;4308;51.294;6.590;2022-09-30T12:11:12;7.33;;;5.80;;
8540;SDS011;4308;51.294;6.590;2022-09-30T12:13:42;4.90;;;4.50;;
8540;SDS011;4308;51.294;6.590;2022-09-30T12:16:15;6.37;;;4.93;;
8540;SDS011;4308;51.294;6.590;2022-09-30T12:18:43;6.70;;;5.90;;
8540;SDS011;4308;51.294;6.590;2022-09-30T12:21:17;7.97;;;5.70;;
8540;SDS011;4308;51.294;6.590;2022-09-30T12:23:48;6.03;;;5.20;;
8540;SDS011;4308;51.294;6.590;2022-09-30T12:26:17;5.33;;;4.93;;
8540;SDS011;4308;51.294;6.590;2022-09-30T12:28:55;4.77;;;4.27;;
8540;SDS011;4308;51.294;6.590;2022-09-30T12:36:53;7.33;;;4.33;;
8540;SDS011;4308;51.294;6.590;2022-09-30T12:47:50;8.07;;;4.57;;
8540;SDS011;4308;51.294;6.590;2022-09-30T12:50:19;6.40;;;4.60;;
8540;SDS011;4308;51.294;6.590;2022-09-30T12:52:47;6.93;;;5.13;;
8540;SDS011;4308;51.294;6.590;2022-09-30T12:55:35;6.70;;;5.60;;
8540;SDS011;4308;51.294;6.590;2022-09-30T12:58:04;7.17;;;5.40;;
8540;SDS011;4308;51.294;6.590;2022-09-30T13:00:33;6.47;;;5.47;;
8540;SDS011;4308;51.294;6.590;2022-09-30T13:10:30;6.67;;;4.80;;
8540;SDS011;4308;51.294;6.590;2022-09-30T13:15:45;5.23;;;4.73;;
8540;SDS011;4308;51.294;6.590;2022-09-30T13:23:36;5.13;;;4.63;;
8540;SDS011;4308;51.294;6.590;2022-09-30T13:27:04;6.07;;;4.80;;
8540;SDS011;4308;51.294;6.590;2022-09-30T13:29:45;4.63;;;4.23;;
8540;SDS011;4308;51.294;6.590;2022-09-30T13:39:22;5.40;;;4.57;;
8540;SDS011;4308;51.294;6.590;2022-09-30T13:47:34;5.77;;;4.37;;
8540;SDS011;4308;51.294;6.590;2022-09-30T13:50:08;6.43;;;4.03;;
8540;SDS011;4308;51.294;6.590;2022-09-30T13:52:38;7.53;;;5.13;;
8540;SDS011;4308;51.294;6.590;2022-09-30T13:55:17;8.17;;;5.10;;
8540;SDS011;4308;51.294;6.590;2022-09-30T14:03:33;4.87;;;4.30;;
8540;SDS011;4308;51.294;6.590;2022-09-30T14:06:12;4.90;;;4.37;;
8540;SDS011;4308;51.294;6.590;2022-09-30T14:22:09;5.57;;;3.50;;
8540;SDS011;4308;51.294;6.590;2022-09-30T14:24:37;3.97;;;3.57;;
8540;SDS011;4308;51.294;6.590;2022-09-30T14:27:29;5.40;;;3.77;;
8540;SDS011;4308;51.294;6.590;2022-09-30T14:35:04;5.83;;;4.20;;
8540;SDS011;4308;51.294;6.590;2022-09-30T14:37:43;4.17;;;3.23;;
8540;SDS011;4308;51.294;6.590;2022-09-30T14:40:14;4.33;;;3.20;;
8540;SDS011;4308;51.294;6.590;2022-09-30T14:42:42;3.33;;;3.03;;
8540;SDS011;4308;51.294;6.590;2022-09-30T14:45:18;4.63;;;2.50;;
8540;SDS011;4308;51.294;6.590;2022-09-30T14:47:47;3.30;;;2.90;;
8540;SDS011;4308;51.294;6.590;2022-09-30T14:50:17;5.37;;;2.80;;
8540;SDS011;4308;51.294;6.590;2022-09-30T14:52:46;6.40;;;2.40;;
8540;SDS011;4308;51.294;6.590;2022-09-30T14:55:22;2.40;;;2.20;;
8540;SDS011;4308;51.294;6.590;2022-09-30T14:57:50;3.20;;;2.07;;
8540;SDS011;4308;51.294;6.590;2022-09-30T15:00:23;2.73;;;2.07;;
8540;SDS011;4308;51.294;6.590;2022-09-30T15:02:52;2.10;;;1.90;;
8540;SDS011;4308;51.294;6.590;2022-09-30T15:05:20;3.30;;;2.00;;
8540;SDS011;4308;51.294;6.590;2022-09-30T15:07:47;2.67;;;2.00;;
8540;SDS011;4308;51.294;6.590;2022-09-30T15:10:16;2.57;;;2.10;;
8540;SDS011;4308;51.294;6.590;2022-09-30T15:12:45;3.43;;;1.47;;
8540;SDS011;4308;51.294;6.590;2022-09-30T15:17:49;2.67;;;1.93;;
8540;SDS011;4308;51.294;6.590;2022-09-30T15:20:27;3.67;;;1.97;;
8540;SDS011;4308;51.294;6.590;2022-09-30T15:22:57;4.13;;;1.97;;
8540;SDS011;4308;51.294;6.590;2022-09-30T15:25:25;2.43;;;1.83;;
8540;SDS011;4308;51.294;6.590;2022-09-30T15:27:53;4.60;;;2.10;;
8540;SDS011;4308;51.294;6.590;2022-09-30T15:30:22;4.27;;;1.93;;
8540;SDS011;4308;51.294;6.590;2022-09-30T15:32:55;5.20;;;2.00;;
8540;SDS011;4308;51.294;6.590;2022-09-30T15:35:23;3.43;;;2.07;;
8540;SDS011;4308;51.294;6.590;2022-09-30T15:37:51;3.33;;;1.83;;
8540;SDS011;4308;51.294;6.590;2022-09-30T15:40:19;4.43;;;1.70;;
8540;SDS011;4308;51.294;6.590;2022-09-30T15:45:31;2.97;;;1.70;;
8540;SDS011;4308;51.294;6.590;2022-09-30T15:50:48;2.53;;;1.50;;
8540;SDS011;4308;51.294;6.590;2022-09-30T15:55:51;2.57;;;1.57;;
8540;SDS011;4308;51.294;6.590;2022-09-30T16:00:53;2.33;;;1.53;;
8540;SDS011;4308;51.294;6.590;2022-09-30T16:03:34;2.90;;;1.70;;
8540;SDS011;4308;51.294;6.590;2022-09-30T16:06:03;5.17;;;1.53;;
8540;SDS011;4308;51.294;6.590;2022-09-30T16:08:32;1.83;;;1.47;;
8540;SDS011;4308;51.294;6.590;2022-09-30T16:11:02;3.67;;;1.70;;
8540;SDS011;4308;51.294;6.590;2022-09-30T16:13:35;1.63;;;1.50;;
8540;SDS011;4308;51.294;6.590;2022-09-30T16:16:13;8.63;;;1.90;;
8540;SDS011;4308;51.294;6.590;2022-09-30T16:18:44;1.80;;;1.43;;
8540;SDS011;4308;51.294;6.590;2022-09-30T16:23:58;2.30;;;1.53;;
8540;SDS011;4308;51.294;6.590;2022-09-30T16:26:27;2.63;;;1.47;;
8540;SDS011;4308;51.294;6.590;2022-09-30T16:28:55;4.07;;;1.43;;
8540;SDS011;4308;51.294;6.590;2022-09-30T16:31:23;2.17;;;1.50;;
8540;SDS011;4308;51.294;6.590;2022-09-30T16:33:50;5.30;;;1.80;;
8540;SDS011;4308;51.294;6.590;2022-09-30T16:36:18;3.37;;;1.43;;
8540;SDS011;4308;51.294;6.590;2022-09-30T16:38:45;2.43;;;1.13;;
8540;SDS011;4308;51.294;6.590;2022-09-30T16:41:13;1.63;;;1.40;;
8540;SDS011;4308;51.294;6.590;2022-09-30T16:43:40;2.00;;;1.50;;
8540;SDS011;4308;51.294;6.590;2022-09-30T16:46:08;1.60;;;1.10;;
8540;SDS011;4308;51.294;6.590;2022-09-30T16:48:36;2.60;;;1.50;;
8540;SDS011;4308;51.294;6.590;2022-09-30T16:53:31;3.17;;;1.40;;
8540;SDS011;4308;51.294;6.590;2022-09-30T16:55:58;1.70;;;1.60;;
8540;SDS011;4308;51.294;6.590;2022-09-30T16:58:26;1.77;;;1.67;;
8540;SDS011;4308;51.294;6.590;2022-09-30T17:00:53;1.27;;;1.17;;
8540;SDS011;4308;51.294;6.590;2022-09-30T17:03:21;3.80;;;1.40;;
8540;SDS011;4308;51.294;6.590;2022-09-30T17:05:48;3.40;;;1.40;;
8540;SDS011;4308;51.294;6.590;2022-09-30T17:08:16;3.93;;;1.70;;
8540;SDS011;4308;51.294;6.590;2022-09-30T17:10:45;2.70;;;1.47;;
8540;SDS011;4308;51.294;6.590;2022-09-30T17:13:13;3.00;;;1.40;;
8540;SDS011;4308;51.294;6.590;2022-09-30T17:15:40;2.40;;;1.40;;
8540;SDS011;4308;51.294;6.590;2022-09-30T17:18:08;1.63;;;1.50;;
8540;SDS011;4308;51.294;6.590;2022-09-30T17:20:40;2.27;;;1.67;;
8540;SDS011;4308;51.294;6.590;2022-09-30T17:23:08;6.50;;;4.10;;
8540;SDS011;4308;51.294;6.590;2022-09-30T17:25:40;3.60;;;2.50;;
8540;SDS011;4308;51.294;6.590;2022-09-30T17:28:11;2.73;;;1.90;;
8540;SDS011;4308;51.294;6.590;2022-09-30T17:30:39;4.57;;;2.43;;
8540;SDS011;4308;51.294;6.590;2022-09-30T17:33:07;3.63;;;2.30;;
8540;SDS011;4308;51.294;6.590;2022-09-30T17:35:37;3.50;;;2.70;;
8540;SDS011;4308;51.294;6.590;2022-09-30T17:38:05;3.33;;;2.00;;
8540;SDS011;4308;51.294;6.590;2022-09-30T17:40:33;2.30;;;1.97;;
8540;SDS011;4308;51.294;6.590;2022-09-30T17:43:00;3.87;;;2.60;;
8540;SDS011;4308;51.294;6.590;2022-09-30T17:45:28;3.00;;;2.00;;
8540;SDS011;4308;51.294;6.590;2022-09-30T17:47:56;2.07;;;1.73;;
8540;SDS011;4308;51.294;6.590;2022-09-30T17:50:23;3.10;;;1.80;;
8540;SDS011;4308;51.294;6.590;2022-09-30T17:52:53;4.10;;;1.73;;
8540;SDS011;4308;51.294;6.590;2022-09-30T17:55:20;6.40;;;3.87;;
8540;SDS011;4308;51.294;6.590;2022-09-30T17:57:48;5.13;;;2.30;;
8540;SDS011;4308;51.294;6.590;2022-09-30T18:00:15;4.50;;;2.37;;
8540;SDS011;4308;51.294;6.590;2022-09-30T18:02:43;3.37;;;2.27;;
8540;SDS011;4308;51.294;6.590;2022-09-30T18:05:11;2.10;;;1.77;;
8540;SDS011;4308;51.294;6.590;2022-09-30T18:07:38;2.30;;;1.60;;
8540;SDS011;4308;51.294;6.590;2022-09-30T18:10:06;1.80;;;1.70;;
8540;SDS011;4308;51.294;6.590;2022-09-30T18:12:33;6.60;;;1.97;;
8540;SDS011;4308;51.294;6.590;2022-09-30T18:15:01;4.90;;;1.60;;
8540;SDS011;4308;51.294;6.590;2022-09-30T18:17:28;1.80;;;1.30;;
8540;SDS011;4308;51.294;6.590;2022-09-30T18:19:56;2.13;;;1.60;;
8540;SDS011;4308;51.294;6.590;2022-09-30T18:22:23;4.43;;;1.50;;
8540;SDS011;4308;51.294;6.590;2022-09-30T18:24:51;2.97;;;1.47;;
8540;SDS011;4308;51.294;6.590;2022-09-30T18:27:18;1.80;;;1.40;;
8540;SDS011;4308;51.294;6.590;2022-09-30T18:29:46;2.70;;;1.57;;
8540;SDS011;4308;51.294;6.590;2022-09-30T18:32:13;1.93;;;1.83;;
8540;SDS011;4308;51.294;6.590;2022-09-30T18:34:41;7.33;;;1.77;;
8540;SDS011;4308;51.294;6.590;2022-09-30T18:37:08;1.70;;;1.60;;
8540;SDS011;4308;51.294;6.590;2022-09-30T18:39:36;5.27;;;2.03;;